createdAt,value
2022-10-19T00:08:40.850Z,100
2022-10-19T00:18:41.453Z,100
2022-10-19T00:28:42.539Z,100
2022-10-19T00:38:43.279Z,100
2022-10-19T00:48:43.565Z,100
2022-10-19T00:58:44.097Z,100
2022-10-19T01:08:44.321Z,100
2022-10-19T01:18:44.454Z,100
2022-10-19T01:28:45.413Z,100
2022-10-19T01:38:45.616Z,100
2022-10-19T01:48:45.864Z,100
2022-10-19T01:58:46.902Z,100
2022-10-19T02:08:47.485Z,100
2022-10-19T02:18:47.999Z,100
2022-10-19T02:28:48.290Z,100
2022-10-19T02:48:48.820Z,100
2022-10-19T02:58:49.397Z,100
2022-10-19T03:08:50.487Z,100
2022-10-19T03:18:51.097Z,100
2022-10-19T03:28:51.498Z,100
2022-10-19T03:38:52.518Z,100
2022-10-19T03:48:53.266Z,100
2022-10-19T04:08:54.036Z,100
2022-10-19T04:48:55.878Z,100
2022-10-19T04:58:56.965Z,100
2022-10-19T05:08:57.538Z,100
2022-10-19T05:18:58.240Z,100
2022-10-19T05:28:58.471Z,100
2022-10-19T05:49:00.180Z,100
2022-10-19T05:59:00.667Z,100
2022-10-19T06:09:00.981Z,100
2022-10-19T06:19:01.883Z,100
2022-10-19T06:29:02.504Z,100
2022-10-19T06:39:02.997Z,100
2022-10-19T06:49:03.666Z,100
2022-10-19T06:59:04.174Z,100
2022-10-19T07:09:04.731Z,100
2022-10-19T07:19:05.536Z,100
2022-10-19T07:29:05.778Z,100
2022-10-19T07:39:05.868Z,100
2022-10-19T07:49:06.055Z,100
2022-10-19T07:59:07.085Z,100
2022-10-19T08:09:07.280Z,100
2022-10-19T08:19:08.290Z,100
2022-10-19T08:29:09.280Z,100
2022-10-19T08:39:10.142Z,100
2022-10-19T08:49:11.094Z,100
2022-10-19T08:59:11.439Z,100
2022-10-19T09:09:12.233Z,100
2022-10-19T09:19:12.644Z,100
2022-10-19T09:29:13.054Z,100
2022-10-19T09:39:13.219Z,100
2022-10-19T09:49:14.180Z,100
2022-10-19T09:59:15.162Z,100
2022-10-19T10:09:16.077Z,97
2022-10-19T10:19:16.530Z,87
2022-10-19T10:29:17.291Z,85
2022-10-19T10:39:18.119Z,85
2022-10-19T10:49:18.550Z,79
2022-10-19T11:09:19.188Z,78
2022-10-19T11:29:20.504Z,75
2022-10-19T11:49:21.098Z,75
2022-10-19T11:59:22.050Z,80
2022-10-19T12:09:22.144Z,79
2022-10-19T12:29:23.455Z,79
2022-10-19T12:59:25.629Z,78
2022-10-19T13:09:26.231Z,78
2022-10-19T13:29:27.408Z,76
2022-10-19T13:49:30.230Z,77
2022-10-19T13:59:29.470Z,77
2022-10-19T14:09:29.999Z,77
2022-10-19T14:29:31.296Z,78
2022-10-19T14:39:31.355Z,79
2022-10-19T14:49:31.586Z,79
2022-10-19T14:59:32.611Z,79
2022-10-19T15:09:37.706Z,80
2022-10-19T15:19:32.975Z,80
2022-10-19T15:39:38.870Z,83
2022-10-19T16:19:41.561Z,86
2022-10-19T16:39:43.503Z,87
2022-10-19T16:49:44.515Z,88
2022-10-19T16:59:45.314Z,89
2022-10-19T17:39:48.093Z,88
2022-10-19T17:49:48.640Z,89
2022-10-19T17:59:52.725Z,89
2022-10-19T18:59:54.023Z,93
2022-10-19T19:39:55.622Z,94
2022-10-19T19:49:56.426Z,95
2022-10-19T19:59:57.135Z,95
2022-10-19T20:09:58.010Z,96
2022-10-19T20:19:58.172Z,96
2022-10-19T20:29:58.493Z,97
2022-10-19T20:39:58.886Z,97
2022-10-19T20:49:59.689Z,98
2022-10-19T21:10:00.874Z,99
2022-10-19T21:20:01.063Z,99
2022-10-19T21:30:01.158Z,99
2022-10-19T22:50:05.560Z,100
2022-10-19T23:00:06.052Z,100
2022-10-19T23:10:06.667Z,100
2022-10-19T23:20:07.609Z,100
2022-10-19T23:30:08.176Z,100
2022-10-19T23:40:09.236Z,100
2022-10-19T23:50:10.238Z,100
